This is the latest recevied weather packets stored in our database for station/object DB0SVX. If no packets are shown the sender has not sent any weather packets the latest 10 day(s).
| Time | Temp. | Humidity | Pressure | Rain* | Wind** | Luminosity | Snow |
|---|---|---|---|---|---|---|---|
| 1777715721 | 27.78° C | 27% | 1020.2 hPa | 0 mm | - | - | - |
| 1777714820 | 27.22° C | 27% | 1020.2 hPa | 0 mm | - | - | - |
| 1777713920 | 26.67° C | 28% | 1020.4 hPa | 0 mm | - | - | - |
| 1777713020 | 27.78° C | 27% | 1020.5 hPa | 0 mm | - | - | - |
| 1777712120 | 27.22° C | 29% | 1020.5 hPa | 0 mm | - | - | - |
| 1777711220 | 26.67° C | 30% | 1020.7 hPa | 0 mm | - | - | - |
| 1777710320 | 25.56° C | 31% | 1020.7 hPa | 0 mm | - | - | - |
| 1777709420 | 22.78° C | 34% | 1020.5 hPa | 0 mm | - | - | - |
| 1777708520 | 16.67° C | 41% | 1020.9 hPa | 0 mm | - | - | - |
| 1777707620 | 15° C | 43% | 1020.9 hPa | 0 mm | - | - | - |
| 1777706720 | 14.44° C | 43% | 1020.9 hPa | 0 mm | - | - | - |
| 1777705820 | 13.33° C | 45% | 1020.7 hPa | 0 mm | - | - | - |
| 1777704920 | 11.67° C | 45% | 1020.9 hPa | 0 mm | - | - | - |
| 1777704020 | 10.56° C | 46% | 1020.9 hPa | 0 mm | - | - | - |
| 1777703120 | 9.44° C | 47% | 1021 hPa | 0 mm | - | - | - |
| 1777702220 | 8.33° C | 46% | 1021 hPa | 0 mm | - | - | - |
| 1777701320 | 7.22° C | 47% | 1021 hPa | 0 mm | - | - | - |
| 1777700420 | 6.11° C | 47% | 1021 hPa | 0 mm | - | - | - |
| 1777699520 | 5.56° C | 47% | 1021 hPa | 0 mm | - | - | - |
| 1777698620 | 4.44° C | 47% | 1020.9 hPa | 0 mm | - | - | - |
| 1777697720 | 3.89° C | 48% | 1020.9 hPa | 0 mm | - | - | - |
| 1777696820 | 3.33° C | 49% | 1020.9 hPa | 0 mm | - | - | - |
| 1777695920 | 3.33° C | 50% | 1020.7 hPa | 0 mm | - | - | - |
| 1777695020 | 2.78° C | 50% | 1020.7 hPa | 0 mm | - | - | - |
| 1777694120 | 2.78° C | 51% | 1020.7 hPa | 0 mm | - | - | - |
* Rain latest hour (hover to see other rain measurements)
** Current wind speed in m/s (hover to see current wind gust speed)